Search for airport 
image banner adimage banner adimage banner ad
image banner ad

58IA - Diewold

Located in Burlington, United States

ICAO - 58IA, IATA -

Data provided by Airmate  

General information

Coordinates: N40°52'26" W91°9'48"
Elevation is 700 feet MSL.
 
View others Airports in Iowa

Operational data

Special qualification required
Current time UTC:
Current local time:
Weather at : KBRL - Southeast Iowa Rgnl ( 11 km )
METAR: KBRL 181753Z AUTO 35006KT 10SM CLR 28/22 A2978 RMK AO2 SLP078 60007 T02830222 10283 20244 58012
TAF: KBRL 181726Z 1818/1918 02005KT P6SM OVC150 TEMPO 1818/1821 -SHRA BKN040 FM190000 VRB03KT P6SM BKN150 PROB30 1903/1907 VRB20G30KT 3SM TSRA OVC035CB FM190900 29007KT P6SM BKN200
View NOTAMs / SUP AIP / TFR affecting this airport [VIEW]
Communications frequencies: [VIEW]

Runways:

RWY identifierQFULength (ft)Width (ft)SurfaceLDA (ft)
091350100GRASS
271350100GRASS

Airport contact information

Address: Burlington United States

Satellite view of 58IA